Terminal Aerodrome Forecast
Issued by NWS

Home | Current Version | Previous Version | Text Only | Print | Product List | Glossary On
Versions: 1 2 3 4 5 6 7 8 9 10 11 12 13 14 15 16 17 18
000
FTUS46 KPDT 301720
TAFYKM
TAF
KYKM 301720Z 3018/3118 24009KT P6SM VCSH FEW060 BKN080
     FM301900 25017G24KT P6SM SCT080
     FM310300 27008KT P6SM FEW080 SCT200
     FM310700 VRB05KT P6SM FEW100 BKN200=

USA.gov is the U.S. government's official web portal to all federal, state and local government web resources and services.